createdAt,value
2022-11-28T00:01:36.617Z,101547.60
2022-11-28T00:04:05.767Z,101550.98
2022-11-28T00:06:41.390Z,101548.05
2022-11-28T00:09:10.048Z,101547.92
2022-11-28T00:11:42.411Z,101547.41
2022-11-28T00:14:11.014Z,101543.52
2022-11-28T00:16:39.170Z,101541.42
2022-11-28T00:19:07.950Z,101542.04
2022-11-28T00:21:35.821Z,101542.52
2022-11-28T00:24:04.309Z,101545.05
2022-11-28T00:26:38.314Z,101546.54
2022-11-28T00:29:07.403Z,101545.02
2022-11-28T00:31:42.695Z,101542.30
2022-11-28T00:34:13.706Z,101544.16
2022-11-28T00:36:44.850Z,101541.86
2022-11-28T00:39:13.814Z,101542.13
2022-11-28T00:41:42.548Z,101541.40
2022-11-28T00:44:10.848Z,101545.79
2022-11-28T00:46:38.742Z,101540.10
2022-11-28T00:49:06.711Z,101538.30
2022-11-28T00:51:35.467Z,101534.92
2022-11-28T00:54:05.923Z,101532.36
2022-11-28T00:56:39.599Z,101532.36
2022-11-28T00:59:07.790Z,101528.23
2022-11-28T01:01:44.755Z,101525.91
2022-11-28T01:04:15.663Z,101524.65
2022-11-28T01:06:46.548Z,101524.21
2022-11-28T01:09:18.306Z,101521.91
2022-11-28T01:11:49.250Z,101520.21
2022-11-28T01:14:19.515Z,101520.48
2022-11-28T01:16:47.631Z,101518.43
2022-11-28T01:19:16.376Z,101516.71
2022-11-28T01:21:44.853Z,101514.02
2022-11-28T01:24:13.501Z,101513.02
2022-11-28T01:26:42.892Z,101510.88
2022-11-28T01:29:11.682Z,101510.61
2022-11-28T01:31:41.046Z,101502.70
2022-11-28T01:34:09.051Z,101498.40
2022-11-28T01:36:36.912Z,101494.42
2022-11-28T01:39:04.776Z,101492.06
2022-11-28T01:41:32.884Z,101491.89
2022-11-28T01:44:15.981Z,101486.98
2022-11-28T01:46:44.473Z,101480.45
2022-11-28T01:49:15.212Z,101475.56
2022-11-28T01:51:48.782Z,101473.73
2022-11-28T01:54:20.746Z,101468.34
2022-11-28T01:56:54.550Z,101466.81
2022-11-28T01:59:24.463Z,101465.32
2022-11-28T02:01:52.472Z,101467.39
2022-11-28T02:04:20.610Z,101462.02
2022-11-28T02:06:48.578Z,101462.58
2022-11-28T02:09:17.361Z,101459.06
2022-11-28T02:11:51.263Z,101455.86
2022-11-28T02:14:34.183Z,101455.82
2022-11-28T02:17:20.686Z,101455.21
2022-11-28T02:20:22.754Z,101453.85
2022-11-28T02:23:19.598Z,101452.13
2022-11-28T02:26:29.037Z,101449.16
2022-11-28T02:29:12.914Z,101447.29
2022-11-28T02:32:22.317Z,101448.77
2022-11-28T02:35:00.125Z,101448.40
2022-11-28T02:37:50.512Z,101443.10
2022-11-28T02:40:26.874Z,101444.82
2022-11-28T02:43:06.927Z,101444.16
2022-11-28T02:45:35.001Z,101443.10
2022-11-28T02:48:12.954Z,101442.44
2022-11-28T02:50:51.411Z,101437.56
2022-11-28T02:53:23.884Z,101437.09
2022-11-28T02:55:52.984Z,101436.86
2022-11-28T02:58:20.845Z,101431.44
2022-11-28T03:00:51.231Z,101431.23
2022-11-28T03:03:28.496Z,101429.52
2022-11-28T03:06:07.277Z,101425.53
2022-11-28T03:09:00.637Z,101424.30
2022-11-28T03:11:59.123Z,101423.41
2022-11-28T03:14:32.825Z,101423.20
2022-11-28T03:17:15.844Z,101422.23
2022-11-28T03:20:01.673Z,101423.88
2022-11-28T03:22:35.332Z,101426.00
2022-11-28T03:25:12.721Z,101427.15
2022-11-28T03:27:47.961Z,101426.69
2022-11-28T03:30:27.396Z,101426.37
2022-11-28T03:32:58.150Z,101422.48
2022-11-28T03:35:31.159Z,101419.39
2022-11-28T03:38:06.151Z,101418.09
2022-11-28T03:40:42.823Z,101414.80
2022-11-28T03:43:14.990Z,101416.59
2022-11-28T03:45:49.305Z,101417.80
2022-11-28T03:48:26.594Z,101415.11
2022-11-28T03:51:02.866Z,101414.19
2022-11-28T03:53:50.991Z,101418.65
2022-11-28T03:56:26.024Z,101423.17
2022-11-28T03:59:26.767Z,101418.77
2022-11-28T04:02:33.063Z,101420.43
2022-11-28T04:05:09.903Z,101422.92
2022-11-28T04:08:16.685Z,101422.13
2022-11-28T04:10:59.716Z,101421.86
2022-11-28T04:13:41.837Z,101421.73
2022-11-28T04:16:20.173Z,101422.23
2022-11-28T04:19:13.409Z,101424.70
2022-11-28T04:21:51.068Z,101419.36
2022-11-28T04:24:25.594Z,101414.07
2022-11-28T04:27:00.727Z,101413.92
2022-11-28T04:29:34.430Z,101416.13
2022-11-28T04:32:03.783Z,101413.10
2022-11-28T04:34:34.973Z,101411.70
2022-11-28T04:37:09.724Z,101412.95
2022-11-28T04:39:41.969Z,101415.27
2022-11-28T04:42:23.865Z,101415.13
2022-11-28T04:45:02.939Z,101415.84
2022-11-28T04:47:31.027Z,101418.00
2022-11-28T04:49:59.340Z,101418.77
2022-11-28T04:52:29.968Z,101415.23
2022-11-28T04:55:05.207Z,101415.55
2022-11-28T04:57:37.994Z,101416.09
2022-11-28T05:00:11.173Z,101417.85
2022-11-28T05:02:42.016Z,101412.95
2022-11-28T05:05:13.877Z,101412.40
2022-11-28T05:07:42.026Z,101410.79
2022-11-28T05:10:12.676Z,101411.02
2022-11-28T05:12:40.848Z,101412.09
2022-11-28T05:15:09.845Z,101410.46
2022-11-28T05:17:42.133Z,101405.86
2022-11-28T05:20:11.216Z,101406.33
2022-11-28T05:22:39.173Z,101405.50
2022-11-28T05:25:07.599Z,101408.27
2022-11-28T05:27:35.929Z,101407.68
2022-11-28T05:30:06.299Z,101407.19
2022-11-28T05:32:34.321Z,101407.30
2022-11-28T05:35:02.741Z,101405.36
2022-11-28T05:37:30.670Z,101408.09
2022-11-28T05:39:58.737Z,101408.77
2022-11-28T05:42:28.653Z,101410.73
2022-11-28T05:44:56.524Z,101411.29
2022-11-28T05:47:25.409Z,101404.80
2022-11-28T05:49:53.169Z,101408.21
2022-11-28T05:52:21.040Z,101406.59
2022-11-28T05:54:48.846Z,101408.38
2022-11-28T05:57:16.665Z,101407.09
2022-11-28T05:59:44.757Z,101404.80
2022-11-28T06:02:13.063Z,101410.11
2022-11-28T06:04:42.179Z,101405.88
2022-11-28T06:07:10.104Z,101401.27
2022-11-28T06:09:38.042Z,101401.88
2022-11-28T06:12:06.445Z,101397.97
2022-11-28T06:14:34.418Z,101398.62
2022-11-28T06:17:02.398Z,101402.43
2022-11-28T06:19:30.319Z,101401.66
2022-11-28T06:21:58.198Z,101401.06
2022-11-28T06:24:26.268Z,101401.46
2022-11-28T06:26:55.250Z,101404.55
2022-11-28T06:29:23.316Z,101407.45
2022-11-28T06:31:51.215Z,101402.49
2022-11-28T06:34:19.150Z,101402.86
2022-11-28T06:36:46.969Z,101408.45
2022-11-28T06:39:16.831Z,101406.64
2022-11-28T06:41:45.267Z,101407.38
2022-11-28T06:44:14.882Z,101407.57
2022-11-28T06:46:43.907Z,101404.94
2022-11-28T06:49:15.324Z,101406.55
2022-11-28T06:51:43.630Z,101401.10
2022-11-28T06:54:12.066Z,101403.17
2022-11-28T06:56:41.415Z,101402.60
2022-11-28T06:59:12.026Z,101402.16
2022-11-28T07:01:39.970Z,101404.20
2022-11-28T07:04:07.876Z,101402.48
2022-11-28T07:06:35.739Z,101402.95
2022-11-28T07:09:04.461Z,101402.23
2022-11-28T07:11:32.851Z,101400.30
2022-11-28T07:14:02.417Z,101399.60
2022-11-28T07:16:33.339Z,101397.22
2022-11-28T07:19:01.351Z,101393.88
2022-11-28T07:21:29.920Z,101396.81
2022-11-28T07:23:59.530Z,101395.06
2022-11-28T07:26:27.834Z,101393.96
2022-11-28T07:28:58.386Z,101387.22
2022-11-28T07:31:31.768Z,101388.70
2022-11-28T07:34:03.691Z,101388.02
2022-11-28T07:36:32.533Z,101391.21
2022-11-28T07:39:02.673Z,101388.86
2022-11-28T07:41:31.013Z,101390.71
2022-11-28T07:44:01.847Z,101393.09
2022-11-28T07:46:31.629Z,101392.23
2022-11-28T07:49:00.592Z,101394.94
2022-11-28T07:51:31.830Z,101391.22
2022-11-28T07:54:01.662Z,101391.60
2022-11-28T07:56:57.110Z,101393.79
2022-11-28T07:59:20.219Z,101391.77
2022-11-28T08:01:48.971Z,101391.45
2022-11-28T08:04:16.996Z,101392.33
2022-11-28T08:06:45.138Z,101396.27
2022-11-28T08:09:13.003Z,101395.52
2022-11-28T08:11:41.835Z,101394.45
2022-11-28T08:14:09.974Z,101393.29
2022-11-28T08:16:41.418Z,101392.48
2022-11-28T08:19:09.482Z,101391.96
2022-11-28T08:21:38.167Z,101393.19
2022-11-28T08:24:08.174Z,101391.30
2022-11-28T08:26:37.492Z,101391.88
2022-11-28T08:29:05.551Z,101391.18
2022-11-28T08:31:36.695Z,101388.23
2022-11-28T08:34:10.399Z,101385.66
2022-11-28T08:36:39.315Z,101387.58
2022-11-28T08:39:24.356Z,101387.64
2022-11-28T08:41:57.450Z,101385.83
2022-11-28T08:44:27.256Z,101383.64
2022-11-28T08:46:55.357Z,101385.69
2022-11-28T08:49:23.290Z,101387.60
2022-11-28T08:51:51.161Z,101388.86
2022-11-28T08:54:19.128Z,101389.39
2022-11-28T08:56:50.031Z,101379.90
2022-11-28T08:59:18.132Z,101379.84
2022-11-28T09:01:46.296Z,101377.98
2022-11-28T09:04:14.643Z,101380.27
2022-11-28T09:06:42.667Z,101379.02
2022-11-28T09:09:10.718Z,101376.06
2022-11-28T09:11:39.046Z,101375.11
2022-11-28T09:14:07.677Z,101371.94
2022-11-28T09:16:35.707Z,101368.09
2022-11-28T09:19:04.128Z,101363.44
2022-11-28T09:21:32.001Z,101365.44
2022-11-28T09:24:00.080Z,101362.64
2022-11-28T09:26:28.032Z,101361.65
2022-11-28T09:28:56.109Z,101358.92
2022-11-28T09:31:24.505Z,101361.07
2022-11-28T09:33:52.533Z,101358.81
2022-11-28T09:36:22.678Z,101357.64
2022-11-28T09:38:51.253Z,101355.33
2022-11-28T09:41:50.793Z,101357.67
2022-11-28T09:44:31.148Z,101348.69
2022-11-28T09:47:09.225Z,101346.18
2022-11-28T09:49:41.586Z,101342.38
2022-11-28T09:52:26.840Z,101343.80
2022-11-28T09:55:11.115Z,101338.73
2022-11-28T09:57:49.750Z,101336.06
2022-11-28T10:00:22.931Z,101332.31
2022-11-28T10:03:12.223Z,101333.33
2022-11-28T10:05:54.908Z,101334.52
2022-11-28T10:09:07.934Z,101329.50
2022-11-28T10:11:38.873Z,101327.21
2022-11-28T10:14:59.675Z,101321.75
2022-11-28T10:17:27.541Z,101320.33
2022-11-28T10:20:31.097Z,101321.48
2022-11-28T10:23:13.549Z,101320.98
2022-11-28T10:25:51.144Z,101321.88
2022-11-28T10:28:33.446Z,101316.59
2022-11-28T10:31:15.869Z,101313.42
2022-11-28T10:33:53.978Z,101316.06
2022-11-28T10:36:27.580Z,101310.70
2022-11-28T10:38:55.526Z,101310.45
2022-11-28T10:41:40.618Z,101304.96
2022-11-28T10:44:35.290Z,101305.44
2022-11-28T10:47:06.707Z,101305.98
2022-11-28T10:49:46.066Z,101307.56
2022-11-28T10:52:46.502Z,101304.83
2022-11-28T10:55:45.095Z,101299.23
2022-11-28T10:58:22.064Z,101303.02
2022-11-28T11:00:57.703Z,101304.11
2022-11-28T11:03:30.086Z,101301.27
2022-11-28T11:05:57.962Z,101301.33
2022-11-28T11:08:29.200Z,101296.23
2022-11-28T11:11:06.963Z,101294.50
2022-11-28T11:13:55.732Z,101291.09
2022-11-28T11:16:24.108Z,101281.03
2022-11-28T11:18:55.150Z,101282.93
2022-11-28T11:21:28.010Z,101280.66
2022-11-28T11:24:21.805Z,101288.40
2022-11-28T11:26:50.173Z,101291.52
2022-11-28T11:29:37.028Z,101296.72
2022-11-28T11:32:16.862Z,101301.52
2022-11-28T11:34:46.873Z,101298.75
2022-11-28T11:37:33.905Z,101302.71
2022-11-28T11:40:03.632Z,101300.44
2022-11-28T11:42:33.286Z,101300.84
2022-11-28T11:45:27.538Z,101304.19
2022-11-28T11:47:55.867Z,101305.13
2022-11-28T11:50:27.292Z,101301.07
2022-11-28T11:53:10.639Z,101307.15
2022-11-28T11:55:51.514Z,101302.86
2022-11-28T11:58:23.782Z,101299.32
2022-11-28T12:00:56.459Z,101301.02
2022-11-28T12:03:45.684Z,101296.52
2022-11-28T12:06:21.392Z,101295.98
2022-11-28T12:08:54.936Z,101297.52
2022-11-28T12:11:30.010Z,101301.86
2022-11-28T12:14:16.234Z,101300.10
2022-11-28T12:17:25.539Z,101298.85
2022-11-28T12:20:06.415Z,101296.71
2022-11-28T12:23:00.800Z,101293.15
2022-11-28T12:25:47.407Z,101290.71
2022-11-28T12:28:21.104Z,101291.64
2022-11-28T12:30:52.014Z,101293.52
2022-11-28T12:33:39.368Z,101287.08
2022-11-28T12:36:12.083Z,101286.09
2022-11-28T12:38:47.791Z,101289.44
2022-11-28T12:41:18.853Z,101290.34
2022-11-28T12:44:28.850Z,101284.11
2022-11-28T12:47:17.445Z,101285.58
2022-11-28T12:49:57.506Z,101288.23
2022-11-28T12:53:06.486Z,101288.33
2022-11-28T12:55:46.079Z,101284.95
2022-11-28T12:58:51.505Z,101292.23
2022-11-28T13:01:38.300Z,101286.77
2022-11-28T13:04:42.695Z,101280.30
2022-11-28T13:07:15.700Z,101284.78
2022-11-28T13:10:13.184Z,101284.31
2022-11-28T13:12:45.914Z,101280.71
2022-11-28T13:15:18.539Z,101285.47
2022-11-28T13:17:52.238Z,101281.59
2022-11-28T13:20:43.075Z,101279.70
2022-11-28T13:23:20.998Z,101275.42
2022-11-28T13:26:14.633Z,101276.23
2022-11-28T13:28:48.531Z,101278.48
2022-11-28T13:31:33.188Z,101278.80
2022-11-28T13:34:01.558Z,101278.00
2022-11-28T13:39:40.281Z,101280.23
2022-11-28T13:48:57.438Z,101275.46
2022-11-28T13:51:31.606Z,101277.43
2022-11-28T13:54:42.007Z,101276.43
2022-11-28T13:57:26.389Z,101270.29
2022-11-28T14:00:25.079Z,101271.60
2022-11-28T14:03:00.696Z,101269.81
2022-11-28T14:05:41.709Z,101269.75
2022-11-28T14:08:28.180Z,101266.81
2022-11-28T14:11:27.454Z,101267.27
2022-11-28T14:14:43.625Z,101264.81
2022-11-28T14:17:11.890Z,101262.44
2022-11-28T14:19:59.296Z,101260.17
2022-11-28T14:23:01.667Z,101261.33
2022-11-28T14:25:39.673Z,101260.29
2022-11-28T14:28:27.501Z,101262.19
2022-11-28T14:31:12.488Z,101261.56
2022-11-28T14:33:44.231Z,101256.78
2022-11-28T14:36:23.977Z,101254.59
2022-11-28T14:39:12.227Z,101253.19
2022-11-28T14:42:05.178Z,101257.69
2022-11-28T14:44:52.614Z,101258.48
2022-11-28T14:47:32.046Z,101255.91
2022-11-28T14:50:05.708Z,101256.83
2022-11-28T14:52:39.446Z,101256.10
2022-11-28T14:55:08.020Z,101256.67
2022-11-28T14:57:38.973Z,101257.45
2022-11-28T15:00:28.528Z,101261.66
2022-11-28T15:03:40.833Z,101258.09
2022-11-28T15:06:25.295Z,101256.30
2022-11-28T15:09:08.721Z,101253.80
2022-11-28T15:11:46.722Z,101252.27
2022-11-28T15:14:24.929Z,101254.89
2022-11-28T15:16:57.813Z,101249.28
2022-11-28T15:19:44.237Z,101253.13
2022-11-28T15:22:41.584Z,101254.29
2022-11-28T15:25:18.754Z,101255.50
2022-11-28T15:27:46.946Z,101257.13
2022-11-28T15:30:18.096Z,101258.64
2022-11-28T15:32:47.021Z,101258.02
2022-11-28T15:35:18.531Z,101257.01
2022-11-28T15:37:50.755Z,101256.36
2022-11-28T15:40:31.485Z,101259.73
2022-11-28T15:43:00.572Z,101255.91
2022-11-28T15:45:32.408Z,101256.27
2022-11-28T15:48:00.379Z,101259.14
2022-11-28T15:50:31.106Z,101252.35
2022-11-28T15:53:16.888Z,101250.48
2022-11-28T15:55:45.489Z,101250.77
2022-11-28T15:58:20.605Z,101253.66
2022-11-28T16:00:55.256Z,101252.66
2022-11-28T16:03:26.677Z,101250.25
2022-11-28T16:05:56.188Z,101251.47
2022-11-28T16:08:32.566Z,101257.83
2022-11-28T16:11:03.695Z,101260.52
2022-11-28T16:13:33.639Z,101258.14
2022-11-28T16:16:04.363Z,101259.42
2022-11-28T16:18:32.719Z,101260.73
2022-11-28T16:21:02.012Z,101256.48
2022-11-28T16:23:35.900Z,101257.44
2022-11-28T16:26:20.681Z,101254.77
2022-11-28T16:29:11.693Z,101258.64
2022-11-28T16:31:40.058Z,101258.58
2022-11-28T16:34:13.112Z,101256.72
2022-11-28T16:36:45.859Z,101257.18
2022-11-28T16:39:17.910Z,101258.54
2022-11-28T16:41:54.984Z,101258.24
2022-11-28T16:44:24.995Z,101258.90
2022-11-28T16:46:58.428Z,101261.77
2022-11-28T16:49:38.646Z,101261.45
2022-11-28T16:52:21.670Z,101253.65
2022-11-28T16:54:59.502Z,101256.94
2022-11-28T16:57:45.696Z,101254.95
2022-11-28T17:00:13.834Z,101256.46
2022-11-28T17:02:41.697Z,101255.05
2022-11-28T17:05:09.972Z,101252.30
2022-11-28T17:07:38.632Z,101257.34
2022-11-28T17:10:07.420Z,101255.71
2022-11-28T17:12:38.997Z,101258.86
2022-11-28T17:15:10.689Z,101258.02
2022-11-28T17:17:38.622Z,101259.02
2022-11-28T17:20:07.509Z,101257.75
2022-11-28T17:22:41.205Z,101255.60
2022-11-28T17:25:19.214Z,101253.20
2022-11-28T17:27:50.462Z,101255.33
2022-11-28T17:30:19.710Z,101256.95
2022-11-28T17:32:48.152Z,101257.63
2022-11-28T17:35:23.479Z,101254.66
2022-11-28T17:37:51.547Z,101256.52
2022-11-28T17:40:34.671Z,101256.20
2022-11-28T17:43:03.692Z,101256.67
2022-11-28T17:45:35.186Z,101257.46
2022-11-28T17:48:03.185Z,101258.12
2022-11-28T17:50:31.182Z,101260.42
2022-11-28T17:52:59.222Z,101258.55
2022-11-28T17:55:27.087Z,101255.70
2022-11-28T17:57:54.958Z,101259.55
2022-11-28T18:00:23.178Z,101258.63
2022-11-28T18:02:51.120Z,101258.70
2022-11-28T18:05:19.123Z,101259.22
2022-11-28T18:07:47.135Z,101259.40
2022-11-28T18:10:15.304Z,101258.26
2022-11-28T18:12:43.219Z,101262.14
2022-11-28T18:15:11.176Z,101256.30
2022-11-28T18:17:39.005Z,101252.13
2022-11-28T18:20:07.838Z,101248.29
2022-11-28T18:22:35.617Z,101252.08
2022-11-28T18:25:03.594Z,101249.80
2022-11-28T18:27:31.427Z,101253.48
2022-11-28T18:29:59.275Z,101260.48
2022-11-28T18:32:27.329Z,101259.42
2022-11-28T18:34:55.291Z,101261.39
2022-11-28T18:37:23.209Z,101266.75
2022-11-28T18:39:51.252Z,101265.92
2022-11-28T18:42:19.344Z,101266.59
2022-11-28T18:44:47.924Z,101264.98
2022-11-28T18:47:17.349Z,101263.11
2022-11-28T18:49:45.427Z,101267.59
2022-11-28T18:52:13.632Z,101267.68
2022-11-28T18:54:41.765Z,101266.73
2022-11-28T18:57:09.756Z,101267.89
2022-11-28T18:59:37.701Z,101271.95
2022-11-28T19:02:05.902Z,101268.96
2022-11-28T19:04:33.844Z,101263.63
2022-11-28T19:07:02.633Z,101266.20
2022-11-28T19:09:35.633Z,101265.95
2022-11-28T19:12:04.878Z,101266.22
2022-11-28T19:14:32.887Z,101259.97
2022-11-28T19:17:02.291Z,101266.20
2022-11-28T19:19:30.890Z,101268.75
2022-11-28T19:21:58.734Z,101269.48
2022-11-28T19:24:26.702Z,101273.74
2022-11-28T19:26:54.568Z,101270.45
2022-11-28T19:29:22.752Z,101277.87
2022-11-28T19:31:50.773Z,101275.31
2022-11-28T19:34:19.342Z,101279.35
2022-11-28T19:36:50.129Z,101277.80
2022-11-28T19:39:19.420Z,101276.41
2022-11-28T19:41:47.612Z,101277.36
2022-11-28T19:44:15.768Z,101279.89
2022-11-28T19:46:44.396Z,101278.13
2022-11-28T19:49:21.641Z,101275.52
2022-11-28T19:51:50.716Z,101274.54
2022-11-28T19:54:20.634Z,101278.64
2022-11-28T19:56:49.448Z,101275.84
2022-11-28T19:59:17.649Z,101278.48
2022-11-28T20:01:49.055Z,101279.91
2022-11-28T20:04:17.035Z,101280.05
2022-11-28T20:06:44.946Z,101279.91
2022-11-28T20:09:14.107Z,101280.83
2022-11-28T20:11:43.222Z,101282.27
2022-11-28T20:14:14.542Z,101283.60
2022-11-28T20:16:43.720Z,101289.11
2022-11-28T20:19:14.316Z,101287.05
2022-11-28T20:21:42.223Z,101286.58
2022-11-28T20:24:10.906Z,101291.82
2022-11-28T20:26:42.668Z,101292.20
2022-11-28T20:29:14.218Z,101287.80
2022-11-28T20:31:45.716Z,101288.33
2022-11-28T20:34:14.938Z,101288.17
2022-11-28T20:36:43.851Z,101291.67
2022-11-28T20:39:12.435Z,101293.77
2022-11-28T20:41:40.332Z,101294.57
2022-11-28T20:44:08.677Z,101294.61
2022-11-28T20:46:36.850Z,101293.79
2022-11-28T20:49:06.973Z,101296.70
2022-11-28T20:51:35.961Z,101296.52
2022-11-28T20:54:06.183Z,101296.39
2022-11-28T20:57:05.220Z,101296.44
2022-11-28T20:59:27.308Z,101296.88
2022-11-28T21:01:55.375Z,101296.10
2022-11-28T21:04:23.361Z,101294.48
2022-11-28T21:06:51.518Z,101297.12
2022-11-28T21:09:20.634Z,101294.72
2022-11-28T21:11:58.433Z,101291.63
2022-11-28T21:14:28.940Z,101291.25
2022-11-28T21:16:58.652Z,101289.13
2022-11-28T21:19:27.332Z,101290.60
2022-11-28T21:21:55.411Z,101289.82
2022-11-28T21:24:23.477Z,101288.17
2022-11-28T21:26:54.307Z,101288.84
2022-11-28T21:29:24.637Z,101289.95
2022-11-28T21:31:53.413Z,101292.24
2022-11-28T21:34:22.528Z,101293.95
2022-11-28T21:36:50.648Z,101293.63
2022-11-28T21:39:20.467Z,101294.58
2022-11-28T21:41:48.885Z,101292.09
2022-11-28T21:44:17.333Z,101294.38
2022-11-28T21:46:45.157Z,101288.72
2022-11-28T21:49:12.960Z,101291.23
2022-11-28T21:51:41.131Z,101289.71
2022-11-28T21:54:10.867Z,101288.63
2022-11-28T21:56:39.238Z,101283.13
2022-11-28T21:59:07.199Z,101287.21
2022-11-28T22:01:35.052Z,101283.61
2022-11-28T22:04:03.359Z,101286.61
2022-11-28T22:06:31.965Z,101286.30
2022-11-28T22:09:08.314Z,101288.02
2022-11-28T22:11:37.439Z,101284.05
2022-11-28T22:14:05.692Z,101276.89
2022-11-28T22:16:33.704Z,101280.77
2022-11-28T22:19:01.858Z,101280.39
2022-11-28T22:24:18.149Z,101278.95
2022-11-28T22:26:46.101Z,101276.50
2022-11-28T22:29:14.625Z,101281.03
2022-11-28T22:31:42.491Z,101283.70
2022-11-28T22:34:10.710Z,101280.52
2022-11-28T22:36:38.987Z,101281.21
2022-11-28T22:39:06.850Z,101276.98
2022-11-28T22:41:34.668Z,101277.48
2022-11-28T22:44:04.120Z,101277.52
2022-11-28T22:46:33.017Z,101277.20
2022-11-28T22:49:01.745Z,101276.02
2022-11-28T22:51:30.613Z,101276.16
2022-11-28T22:54:01.340Z,101278.45
2022-11-28T22:56:32.054Z,101276.30
2022-11-28T22:59:00.834Z,101274.70
2022-11-28T23:01:30.969Z,101278.56
2022-11-28T23:03:59.601Z,101276.23
2022-11-28T23:06:30.471Z,101277.41
2022-11-28T23:09:00.190Z,101277.82
2022-11-28T23:11:30.524Z,101276.45
2022-11-28T23:13:58.885Z,101277.56
2022-11-28T23:16:30.074Z,101276.05
2022-11-28T23:19:01.373Z,101277.79
2022-11-28T23:21:32.011Z,101279.11
2022-11-28T23:24:00.081Z,101280.13
2022-11-28T23:26:30.603Z,101279.75
2022-11-28T23:29:00.744Z,101276.73
2022-11-28T23:31:31.731Z,101278.41
2022-11-28T23:34:00.548Z,101273.98
2022-11-28T23:36:29.747Z,101275.63
2022-11-28T23:39:00.746Z,101274.30
2022-11-28T23:41:29.831Z,101273.85
2022-11-28T23:43:57.948Z,101272.98
2022-11-28T23:46:26.779Z,101272.81
2022-11-28T23:48:54.705Z,101270.98
2022-11-28T23:51:25.767Z,101271.17
2022-11-28T23:53:54.065Z,101267.77
2022-11-28T23:56:25.165Z,101266.98
2022-11-28T23:58:55.076Z,101268.52
